Weather observations for the past three days for
Bay Bridge Field
Imperial (Metric)
Date Time (edt) Wind (mph) Vis. (mi.) Weather Sky Cond. Temperature (ºF) Relative Humidity Wind Chill (°F) Heat Index (°F) Pressure Precipitation (in)
Air Dwpt 6 hour altimeter (in) sea level (mb) 1 hr 3 hr 6 hr
Max. Min.
06 04:15 S 13 G 22 10.00 Fair CLR 0 0 0% 29.84 0.0
06 03:55 S 15 G 22 10.00 Fair CLR 0 0 0% 29.84 0.0
06 03:35 S 16 G 23 10.00 Fair CLR 0 0 0% 29.85 0.0
06 03:15 S 16 10.00 Fair CLR 0 0 0% 29.85 0.0
06 02:55 S 14 G 22 10.00 Fair CLR 0 0 0% 29.85 0.0
06 02:35 S 13 G 22 10.00 Fair CLR 0 0 0% 29.85 0.0
06 02:15 S 12 G 20 10.00 Fair CLR 0 0 0% 29.85 0.0
06 01:55 S 15 G 22 10.00 Fair CLR 0 0 0% 29.85 0.0
06 01:35 S 15 G 24 10.00 Fair CLR 0 0 0% 29.86 0.0
06 01:15 S 12 G 17 10.00 Fair CLR 0 0 0% 29.86 0.0
06 00:55 S 12 10.00 Fair CLR 0 0 0% 29.87 0.0
06 00:35 S 12 G 21 10.00 Fair CLR 0 0 0% 29.87 0.0
06 00:15 S 14 G 17 10.00 Fair CLR 0 0 0% 29.87 0.0
05 23:55 S 12 G 18 10.00 Fair CLR 0 0 0% 29.87 0.0
05 23:35 S 12 10.00 Fair CLR 0 0 0% 29.86 0.0
05 23:15 S 10 10.00 Fair CLR 0 0 0% 29.86 0.0
05 22:55 S 12 10.00 Fair CLR 0 0 0% 29.86 0.0
05 22:35 S 10 10.00 Fair CLR 0 0 0% 29.87 0.0
05 22:15 S 10 10.00 Fair CLR 0 0 0% 29.87 0.0
05 21:55 S 12 G 23 10.00 Fair CLR 0 0 0% 29.86 0.0
05 21:35 S 10 10.00 Fair CLR 0 0 0% 29.86 0.0
05 21:15 S 10 10.00 Fair CLR 0 0 0% 29.85 0.0
05 20:55 S 10 G 16 10.00 Fair CLR 0 0 0% 29.84 0.0
05 20:35 S 12 G 17 10.00 Fair CLR 0 0 0% 29.83 0.0
05 20:15 S 9 10.00 Fair CLR 0 0 0% 29.83 0.0
05 19:55 S 10 10.00 Fair CLR 0 0 0% 29.83 0.0
05 19:35 S 10 10.00 Fair CLR 0 0 0% 29.82 0.0
05 19:15 S 12 G 18 10.00 Fair CLR 0 0 0% 29.82 0.0
05 18:55 S 13 G 23 10.00 Fair CLR 0 0 0% 29.82 0.0
05 18:35 S 12 G 22 10.00 Fair CLR 0 0 0% 29.82 0.0
05 18:15 S 14 G 23 10.00 Fair CLR 0 0 0% 29.83 0.0
05 17:55 S 15 G 22 10.00 Fair CLR 0 0 0% 29.82 0.0
05 17:35 S 13 G 22 10.00 Fair CLR 0 0 0% 29.82 0.0
05 17:15 S 13 G 23 10.00 Fair CLR 0 0 0% 29.82 0.0
05 16:55 S 12 G 22 10.00 Fair CLR 0 0 0% 29.81 0.0
05 16:35 S 15 G 26 10.00 Fair CLR 0 0 0% 29.81 0.0
05 16:15 S 15 G 24 10.00 Fair CLR 0 0 0% 29.82 0.0
05 15:55 S 17 G 25 10.00 Fair CLR 0 0 0% 29.82 0.0
05 15:35 S 21 G 25 10.00 Fair and Breezy CLR 0 0 0% 29.83 0.0
05 15:15 S 15 G 28 10.00 Fair CLR 0 0 0% 29.84 0.0
05 14:55 S 20 G 26 10.00 Fair CLR 0 0 0% 29.85 0.0
05 14:35 S 17 G 23 10.00 Fair CLR 0 0 0% 29.86 0.0
05 14:15 S 15 G 21 10.00 Fair CLR 0 0 0% 29.86 0.0
05 13:55 S 14 G 24 7.00 Fair with Haze CLR 0 0 0% 29.87 0.0
05 13:35 S 15 G 24 10.00 Fair CLR 0 0 0% 29.87 0.0
05 12:55 S 16 G 23 10.00 Fair CLR 0 0 0% 29.89 0.0
05 12:35 S 12 G 21 10.00 Fair CLR 0 0 0% 29.9 0.0
05 12:10 S 15 G 18 10.00 Fair CLR 0 0 0% 29.9 0.0
05 11:55 S 12 G 16 10.00 Fair CLR 0 0 0% 29.9 0.0
05 11:35 S 10 10.00 Fair CLR 0 0 0% 29.91 0.0
05 11:15 S 13 10.00 Fair CLR 0 0 0% 29.91 0.0
05 10:55 SE 16 10.00 Fair CLR 0 0 0% 29.91 0.0
05 10:35 S 8 10.00 Fair CLR 0 0 0% 29.9 0.0
05 10:15 S 7 10.00 Fair CLR 0 0 0% 29.91 0.0
05 09:55 S 9 10.00 Fair CLR 0 0 0% 29.91 0.0
05 09:35 SW 10 10.00 Fair CLR 0 0 0% 29.91 0.0
05 09:15 SW 10 10.00 Fair CLR 0 0 0% 29.91 0.0
05 08:35 SW 14 G 20 10.00 Fair CLR 0 0 0% 29.91 0.0
05 08:15 SW 13 10.00 Fair CLR 0 0 0% 29.9 0.0
05 07:55 SW 9 10.00 Fair CLR 0 0 0% 29.9 0.0
05 07:15 SW 7 10.00 Partly Cloudy SCT110 0 0 0% 29.9 0.0
05 06:55 SW 7 10.00 Mostly Cloudy BKN100 0 0 0% 29.89 0.0
05 06:35 SW 6 10.00 Mostly Cloudy BKN100 0 0 0% 29.89 0.0
05 06:15 SW 5 10.00 Fair CLR 0 0 0% 29.88 0.0
05 05:55 S 5 10.00 Fair CLR 0 0 0% 29.88 0.0
05 05:35 SW 6 10.00 Fair CLR 0 0 0% 29.88 0.0
05 05:15 SW 7 10.00 Fair CLR 0 0 0% 29.87 0.0
05 04:55 S 9 10.00 Fair CLR 0 0 0% 29.87 0.0
05 04:35 SW 8 10.00 Fair CLR 0 0 0% 29.87 0.0
05 04:15 SW 10 10.00 Fair CLR 0 0 0% 29.87 0.0
05 03:55 S 9 10.00 Fair CLR 0 0 0% 29.86 0.0
05 03:35 S 9 10.00 Fair CLR 0 0 0% 29.87 0.0
05 03:15 S 13 G 20 10.00 Fair CLR 0 0 0% 29.86 0.0
05 02:55 S 9 10.00 Fair CLR 0 0 0% 29.87 0.0
05 02:35 S 10 10.00 Fair CLR 0 0 0% 29.87 0.0
05 02:15 S 8 10.00 Fair CLR 0 0 0% 29.86 0.0
05 01:55 S 12 G 18 10.00 Fair CLR 0 0 0% 29.87 0.0
05 01:35 S 9 10.00 Fair CLR 0 0 0% 29.87 0.0
05 01:15 S 8 10.00 Fair CLR 0 0 0% 29.87 0.0
05 00:55 S 9 10.00 Partly Cloudy SCT110 0 0 0% 29.87 0.0
05 00:35 S 8 10.00 Partly Cloudy SCT110 0 0 0% 29.87 0.0
05 00:15 S 9 10.00 Fair CLR 0 0 0% 29.87 0.0
04 23:50 S 9 10.00 Fair CLR 0 0 0% 29.86 0.0
04 23:35 S 7 10.00 Fair CLR 0 0 0% 29.86 0.0
04 23:15 S 8 10.00 Fair CLR 0 0 0% 29.86 0.0
04 22:55 S 8 10.00 Fair CLR 0 0 0% 29.86 0.0
04 22:35 S 8 10.00 Fair CLR 0 0 0% 29.86 0.0
04 22:15 S 9 G 20 10.00 Fair CLR 0 0 0% 29.86 0.0
04 21:55 S 12 G 18 10.00 Fair CLR 0 0 0% 29.86 0.0
04 21:35 S 12 G 17 10.00 Fair CLR 0 0 0% 29.86 0.0
04 21:15 S 9 10.00 Partly Cloudy SCT110 0 0 0% 29.85 0.0
04 20:55 S 8 10.00 Partly Cloudy SCT110 0 0 0% 29.84 0.0
04 20:35 S 10 10.00 Fair CLR 0 0 0% 29.84 0.0
04 20:15 S 12 10.00 Fair CLR 0 0 0% 29.84 0.0
04 19:55 S 12 10.00 Fair CLR 0 0 0% 29.84 0.0
04 19:35 S 9 10.00 Fair CLR 0 0 0% 29.84 0.0
04 19:15 S 13 G 17 10.00 Fair CLR 0 0 0% 29.84 0.0
04 18:55 S 14 10.00 Fair CLR 0 0 0% 29.84 0.0
04 18:35 S 15 G 18 10.00 Fair CLR 0 0 0% 29.84 0.0
04 18:15 S 15 G 20 10.00 Fair CLR 0 0 0% 29.84 0.0
04 17:55 S 15 G 20 10.00 Fair CLR 0 0 0% 29.84 0.0
04 17:35 S 10 10.00 Fair CLR 0 0 0% 29.84 0.0
04 17:15 S 14 10.00 Fair CLR 0 0 0% 29.84 0.0
04 16:55 S 12 G 17 10.00 Fair CLR 0 0 0% 29.84 0.0
04 16:35 S 10 G 23 10.00 Fair CLR 0 0 0% 29.85 0.0
04 16:15 S 13 10.00 Fair CLR 0 0 0% 29.86 0.0
04 15:55 SE 14 G 20 10.00 Fair CLR 0 0 0% 29.86 0.0
04 15:35 SE 14 G 17 10.00 Fair CLR 0 0 0% 29.87 0.0
04 15:15 SE 15 10.00 Fair CLR 0 0 0% 29.88 0.0
04 14:55 SE 14 G 20 10.00 Fair CLR 0 0 0% 29.89 0.0
04 14:35 S 13 G 16 10.00 Fair CLR 0 0 0% 29.9 0.0
04 14:15 SE 14 10.00 Fair CLR 0 0 0% 29.9 0.0
04 13:55 SE 14 10.00 Fair CLR 0 0 0% 29.91 0.0
04 13:35 S 13 10.00 Fair CLR 0 0 0% 29.92 0.0
04 13:15 SE 12 10.00 Fair CLR 0 0 0% 29.92 0.0
04 12:55 S 8 10.00 Fair CLR 0 0 0% 29.93 0.0
04 12:35 S 9 10.00 Fair CLR 0 0 0% 29.94 0.0
04 12:15 SE 9 10.00 Fair CLR 0 0 0% 29.95 0.0
04 11:55 S 8 10.00 Fair CLR 0 0 0% 29.95 0.0
04 11:35 S 9 10.00 Fair CLR 0 0 0% 29.95 0.0
04 11:15 SW 7 10.00 Fair CLR 0 0 0% 29.96 0.0
04 10:55 S 8 10.00 Fair CLR 0 0 0% 29.97 0.0
04 10:35 S 8 10.00 Fair CLR 0 0 0% 29.97 0.0
04 10:10 SW 7 10.00 Fair CLR 0 0 0% 29.97 0.0
04 09:55 S 8 10.00 Fair CLR 0 0 0% 29.97 0.0
04 09:35 S 8 10.00 Fair CLR 0 0 0% 29.97 0.0
04 09:15 SW 10 10.00 Fair CLR 0 0 0% 29.98 0.0
04 08:55 S 7 10.00 Partly Cloudy SCT100 0 0 0% 29.98 0.0
04 08:35 SW 9 10.00 Partly Cloudy SCT100 0 0 0% 29.99 0.0
04 08:15 SW 10 10.00 Fair CLR 0 0 0% 29.99 0.0
04 07:55 SW 10 G 20 10.00 Fair CLR 0 0 0% 29.99 0.0
04 07:35 SW 7 10.00 Fair CLR 0 0 0% 30 0.0
04 07:15 S 8 10.00 Partly Cloudy SCT100 0 0 0% 30 0.0
04 06:55 S 7 10.00 Overcast OVC100 0 0 0% 30 0.0
04 06:35 S 10 10.00 Overcast OVC100 0 0 0% 29.99 0.0
04 06:15 S 7 10.00 Overcast OVC110 0 0 0% 29.99 0.0
04 05:55 S 13 G 18 10.00 Overcast OVC120 0 0 0% 29.99 0.0
04 05:35 S 12 10.00 Overcast OVC120 0 0 0% 30 0.0
04 05:15 S 8 10.00 Overcast OVC120 0 0 0% 30 0.0
04 04:55 S 7 10.00 Partly Cloudy SCT100 SCT120 0 0 0% 30 0.0
04 04:35 S 7 10.00 Partly Cloudy SCT110 0 0 0% 30 0.0
04 04:15 S 9 10.00 Fair CLR 0 0 0% 30 0.0
04 03:55 S 8 10.00 Fair CLR 0 0 0% 30 0.0
04 03:35 S 8 10.00 Fair CLR 0 0 0% 30 0.0
04 03:15 S 9 10.00 Fair CLR 0 0 0% 30 0.0
04 02:55 S 7 10.00 Fair CLR 0 0 0% 30.01 0.0
04 02:35 S 10 10.00 Fair CLR 0 0 0% 30.01 0.0
04 01:55 S 7 10.00 Fair CLR 0 0 0% 30.01 0.0
04 01:15 SW 6 10.00 Fair CLR 0 0 0% 30 0.0
04 00:55 S 5 10.00 Fair CLR 0 0 0% 30 0.0
04 00:35 S 3 10.00 Fair CLR 0 0 0% 30.01 0.0
04 00:15 SW 5 10.00 Fair CLR 0 0 0% 30 0.0
03 23:55 SW 7 10.00 Fair CLR 0 0 0% 30 0.0
03 23:35 SW 5 10.00 Fair CLR 0 0 0% 30 0.0
03 23:15 S 5 10.00 Fair CLR 0 0 0% 29.99 0.0
03 22:55 S 5 10.00 Fair CLR 0 0 0% 29.99 0.0
03 22:35 S 5 10.00 Fair CLR 0 0 0% 29.99 0.0
03 22:15 S 3 10.00 Fair CLR 0 0 0% 29.99 0.0
03 21:55 S 5 10.00 Fair CLR 0 0 0% 29.99 0.0
03 21:35 Calm 10.00 Fair CLR 0 0 0% 29.98 0.0
03 21:15 S 5 10.00 Fair CLR 0 0 0% 29.98 0.0
03 20:55 S 3 10.00 Fair CLR 0 0 0% 29.98 0.0
03 20:35 SW 3 10.00 Fair CLR 0 0 0% 29.97 0.0
03 20:15 Calm 10.00 Fair CLR 0 0 0% 29.96 0.0
03 19:55 W 7 10.00 Fair CLR 0 0 0% 29.96 0.0
03 19:35 W 8 10.00 Fair CLR 0 0 0% 29.95 0.0
03 19:15 W 8 10.00 Fair CLR 0 0 0% 29.95 0.0
03 18:55 W 8 10.00 Fair CLR 0 0 0% 29.95 0.0
03 18:35 W 7 10.00 Fair CLR 0 0 0% 29.95 0.0
03 18:15 W 9 10.00 Fair CLR 0 0 0% 29.95 0.0
03 17:55 W 7 10.00 Fair CLR 0 0 0% 29.96 0.0
03 17:35 W 8 10.00 Fair CLR 0 0 0% 29.95 0.0
03 17:15 W 8 10.00 Partly Cloudy SCT080 0 0 0% 29.95 0.0
03 16:55 W 7 G 20 10.00 Partly Cloudy SCT080 0 0 0% 29.96 0.0
03 16:35 NW 12 10.00 Partly Cloudy SCT080 0 0 0% 29.96 0.0
03 16:15 W 8 G 17 10.00 Fair CLR 0 0 0% 29.97 0.0
03 15:55 NW 13 G 18 10.00 Fair CLR 0 0 0% 29.98 0.0
03 15:35 NW 10 G 18 10.00 Partly Cloudy SCT070 0 0 0% 29.98 0.0
03 15:15 NW 10 G 17 10.00 Partly Cloudy SCT070 0 0 0% 29.99 0.0
03 14:55 NW 13 G 17 10.00 Partly Cloudy SCT070 0 0 0% 29.99 0.0
03 14:35 NW 10 10.00 Fair CLR 0 0 0% 30 0.0
03 14:15 NW 13 G 20 10.00 Partly Cloudy SCT070 0 0 0% 30 0.0
03 13:55 NW 12 G 16 10.00 Partly Cloudy SCT070 0 0 0% 30.01 0.0
03 13:35 NW 8 10.00 Partly Cloudy SCT070 0 0 0% 30.01 0.0
03 13:15 NW 10 G 18 10.00 Fair CLR 0 0 0% 30.01 0.0
03 12:55 NW 8 10.00 Fair CLR 0 0 0% 30.02 0.0
03 12:35 N 8 G 20 10.00 Partly Cloudy SCT070 0 0 0% 30.02 0.0
03 12:15 NW 8 10.00 Partly Cloudy SCT070 0 0 0% 30.02 0.0
03 11:55 N 10 10.00 Fair CLR 0 0 0% 30.03 0.0
03 11:35 N 10 G 17 10.00 Fair CLR 0 0 0% 30.03 0.0
03 11:15 NW 12 10.00 Partly Cloudy SCT060 0 0 0% 30.03 0.0
03 10:55 N 12 G 21 10.00 Partly Cloudy SCT060 0 0 0% 30.03 0.0
03 10:35 NW 12 G 21 10.00 Fair CLR 0 0 0% 30.03 0.0
03 10:15 NW 13 G 17 10.00 Fair CLR 0 0 0% 30.03 0.0
03 09:55 NW 13 G 23 10.00 Fair CLR 0 0 0% 30.03 0.0
03 09:35 NW 13 G 23 10.00 Fair CLR 0 0 0% 30.03 0.0
03 09:15 NW 15 G 24 10.00 Fair CLR 0 0 0% 30.03 0.0
03 08:55 NW 14 G 25 10.00 Fair CLR 0 0 0% 30.03 0.0
03 08:35 NW 15 G 24 10.00 Fair CLR 0 0 0% 30.02 0.0
03 08:15 NW 14 G 20 10.00 Fair CLR 0 0 0% 30.02 0.0
03 07:55 NW 18 G 26 10.00 Fair CLR 0 0 0% 30.01 0.0
03 07:35 NW 13 G 24 10.00 Fair CLR 0 0 0% 30 0.0
03 07:15 NW 13 G 22 10.00 Fair CLR 0 0 0% 30 0.0
03 06:55 NW 16 G 24 10.00 Fair CLR 0 0 0% 29.99 0.0
03 06:35 NW 15 G 25 10.00 Fair CLR 0 0 0% 29.98 0.0
03 06:15 NW 14 G 21 10.00 Fair CLR 0 0 0% 29.97 0.0
03 05:55 NW 16 G 25 10.00 Fair CLR 0 0 0% 29.96 0.0
03 05:35 NW 13 G 22 10.00 Fair CLR 0 0 0% 29.96 0.0
03 05:15 NW 13 G 21 10.00 Fair CLR 0 0 0% 29.95 0.0
03 04:55 NW 13 G 16 10.00 Fair CLR 0 0 0% 29.95 0.0
03 04:35 NW 12 G 20 10.00 Fair CLR 0 0 0% 29.94 0.0
Date Time (edt) Wind (mph) Vis. (mi.) Weather Sky Cond. Air Dwpt Max. Min. Relative Humidity Wind Chill (°F) Heat Index (°F) altimeter (in) sea level (mb) 1 hr 3 hr 6 hr
6 hour
Temperature (ºF) Pressure Precipitation (in)